sensor_id;sensor_type;location;lat;lon;timestamp;P1;durP1;ratioP1;P2;durP2;ratioP2
80249;SDS011;69561;37.974;23.708;2023-07-16T00:00:30;12.35;;;5.60;;
80249;SDS011;69561;37.974;23.708;2023-07-16T00:02:56;20.80;;;5.38;;
80249;SDS011;69561;37.974;23.708;2023-07-16T00:05:22;15.23;;;4.80;;
80249;SDS011;69561;37.974;23.708;2023-07-16T00:07:47;12.63;;;5.20;;
80249;SDS011;69561;37.974;23.708;2023-07-16T00:10:13;16.60;;;4.80;;
80249;SDS011;69561;37.974;23.708;2023-07-16T00:12:39;22.15;;;6.10;;
80249;SDS011;69561;37.974;23.708;2023-07-16T00:15:05;12.38;;;5.07;;
80249;SDS011;69561;37.974;23.708;2023-07-16T00:17:32;10.98;;;5.10;;
80249;SDS011;69561;37.974;23.708;2023-07-16T00:19:59;14.02;;;5.28;;
80249;SDS011;69561;37.974;23.708;2023-07-16T00:22:24;13.73;;;5.38;;
80249;SDS011;69561;37.974;23.708;2023-07-16T00:24:50;13.20;;;5.50;;
80249;SDS011;69561;37.974;23.708;2023-07-16T00:27:16;19.13;;;5.75;;
80249;SDS011;69561;37.974;23.708;2023-07-16T00:29:41;10.38;;;5.03;;
80249;SDS011;69561;37.974;23.708;2023-07-16T00:32:07;12.27;;;5.60;;
80249;SDS011;69561;37.974;23.708;2023-07-16T00:34:33;13.90;;;5.65;;
80249;SDS011;69561;37.974;23.708;2023-07-16T00:36:58;19.05;;;5.13;;
80249;SDS011;69561;37.974;23.708;2023-07-16T00:39:29;11.05;;;5.35;;
80249;SDS011;69561;37.974;23.708;2023-07-16T00:41:55;11.10;;;5.55;;
80249;SDS011;69561;37.974;23.708;2023-07-16T00:44:21;14.50;;;5.60;;
80249;SDS011;69561;37.974;23.708;2023-07-16T00:46:48;12.88;;;5.40;;
80249;SDS011;69561;37.974;23.708;2023-07-16T00:49:14;14.43;;;5.68;;
80249;SDS011;69561;37.974;23.708;2023-07-16T00:51:40;16.40;;;5.80;;
80249;SDS011;69561;37.974;23.708;2023-07-16T00:54:06;8.77;;;5.18;;
80249;SDS011;69561;37.974;23.708;2023-07-16T00:56:33;13.10;;;5.82;;
80249;SDS011;69561;37.974;23.708;2023-07-16T00:59:00;10.95;;;5.80;;
80249;SDS011;69561;37.974;23.708;2023-07-16T01:01:26;17.48;;;5.93;;
80249;SDS011;69561;37.974;23.708;2023-07-16T01:03:51;15.65;;;5.45;;
80249;SDS011;69561;37.974;23.708;2023-07-16T01:06:20;19.58;;;5.95;;
80249;SDS011;69561;37.974;23.708;2023-07-16T01:11:32;15.95;;;6.00;;
80249;SDS011;69561;37.974;23.708;2023-07-16T01:14:00;14.65;;;5.85;;
80249;SDS011;69561;37.974;23.708;2023-07-16T01:16:27;12.20;;;5.78;;
80249;SDS011;69561;37.974;23.708;2023-07-16T01:18:53;15.15;;;6.35;;
80249;SDS011;69561;37.974;23.708;2023-07-16T01:21:19;11.50;;;5.80;;
80249;SDS011;69561;37.974;23.708;2023-07-16T01:31:43;16.20;;;5.82;;
80249;SDS011;69561;37.974;23.708;2023-07-16T01:34:14;12.90;;;5.65;;
80249;SDS011;69561;37.974;23.708;2023-07-16T01:36:41;15.50;;;5.75;;
80249;SDS011;69561;37.974;23.708;2023-07-16T01:39:07;12.30;;;5.50;;
80249;SDS011;69561;37.974;23.708;2023-07-16T01:41:32;18.70;;;5.55;;
80249;SDS011;69561;37.974;23.708;2023-07-16T01:43:58;17.05;;;5.82;;
80249;SDS011;69561;37.974;23.708;2023-07-16T01:46:24;10.93;;;5.10;;
80249;SDS011;69561;37.974;23.708;2023-07-16T01:48:50;12.80;;;5.35;;
80249;SDS011;69561;37.974;23.708;2023-07-16T01:51:16;18.17;;;5.95;;
80249;SDS011;69561;37.974;23.708;2023-07-16T01:53:42;13.75;;;5.90;;
80249;SDS011;69561;37.974;23.708;2023-07-16T01:56:08;13.43;;;5.25;;
80249;SDS011;69561;37.974;23.708;2023-07-16T01:58:33;13.52;;;5.85;;
80249;SDS011;69561;37.974;23.708;2023-07-16T02:01:00;14.10;;;5.50;;
80249;SDS011;69561;37.974;23.708;2023-07-16T02:03:27;15.80;;;6.05;;
80249;SDS011;69561;37.974;23.708;2023-07-16T02:05:53;12.35;;;5.50;;
80249;SDS011;69561;37.974;23.708;2023-07-16T02:08:18;12.27;;;5.75;;
80249;SDS011;69561;37.974;23.708;2023-07-16T02:10:44;15.38;;;5.85;;
80249;SDS011;69561;37.974;23.708;2023-07-16T02:13:12;16.17;;;5.57;;
80249;SDS011;69561;37.974;23.708;2023-07-16T02:15:38;14.80;;;6.30;;
80249;SDS011;69561;37.974;23.708;2023-07-16T02:18:05;11.60;;;5.97;;
80249;SDS011;69561;37.974;23.708;2023-07-16T02:20:33;15.68;;;5.97;;
80249;SDS011;69561;37.974;23.708;2023-07-16T02:22:59;17.10;;;6.38;;
80249;SDS011;69561;37.974;23.708;2023-07-16T02:25:24;11.55;;;6.18;;
80249;SDS011;69561;37.974;23.708;2023-07-16T02:27:51;12.32;;;5.43;;
80249;SDS011;69561;37.974;23.708;2023-07-16T02:30:17;17.85;;;6.53;;
80249;SDS011;69561;37.974;23.708;2023-07-16T02:32:44;8.75;;;5.38;;
80249;SDS011;69561;37.974;23.708;2023-07-16T02:35:10;12.88;;;5.82;;
80249;SDS011;69561;37.974;23.708;2023-07-16T02:37:36;11.48;;;6.07;;
80249;SDS011;69561;37.974;23.708;2023-07-16T02:40:03;13.52;;;5.88;;
80249;SDS011;69561;37.974;23.708;2023-07-16T02:42:31;9.70;;;5.82;;
80249;SDS011;69561;37.974;23.708;2023-07-16T02:44:57;11.77;;;5.95;;
80249;SDS011;69561;37.974;23.708;2023-07-16T02:47:23;11.68;;;5.70;;
80249;SDS011;69561;37.974;23.708;2023-07-16T02:49:51;10.50;;;5.55;;
80249;SDS011;69561;37.974;23.708;2023-07-16T02:52:17;18.10;;;5.85;;
80249;SDS011;69561;37.974;23.708;2023-07-16T02:54:43;11.88;;;5.47;;
80249;SDS011;69561;37.974;23.708;2023-07-16T02:57:09;12.25;;;5.65;;
80249;SDS011;69561;37.974;23.708;2023-07-16T02:59:37;12.75;;;5.75;;
80249;SDS011;69561;37.974;23.708;2023-07-16T03:02:03;10.15;;;5.97;;
80249;SDS011;69561;37.974;23.708;2023-07-16T03:04:29;13.48;;;5.90;;
80249;SDS011;69561;37.974;23.708;2023-07-16T03:06:57;14.57;;;6.05;;
80249;SDS011;69561;37.974;23.708;2023-07-16T03:09:22;10.00;;;6.28;;
80249;SDS011;69561;37.974;23.708;2023-07-16T03:11:48;12.77;;;5.93;;
80249;SDS011;69561;37.974;23.708;2023-07-16T03:14:14;12.43;;;6.20;;
80249;SDS011;69561;37.974;23.708;2023-07-16T03:16:40;12.82;;;6.22;;
80249;SDS011;69561;37.974;23.708;2023-07-16T03:19:07;10.52;;;5.78;;
80249;SDS011;69561;37.974;23.708;2023-07-16T03:21:34;10.30;;;5.95;;
80249;SDS011;69561;37.974;23.708;2023-07-16T03:24:00;12.60;;;6.07;;
80249;SDS011;69561;37.974;23.708;2023-07-16T03:26:26;17.30;;;6.28;;
80249;SDS011;69561;37.974;23.708;2023-07-16T03:28:51;12.82;;;5.82;;
80249;SDS011;69561;37.974;23.708;2023-07-16T03:31:19;15.25;;;6.20;;
80249;SDS011;69561;37.974;23.708;2023-07-16T03:33:45;11.50;;;5.68;;
80249;SDS011;69561;37.974;23.708;2023-07-16T03:36:11;15.38;;;5.70;;
80249;SDS011;69561;37.974;23.708;2023-07-16T03:38:36;14.88;;;5.88;;
80249;SDS011;69561;37.974;23.708;2023-07-16T03:41:02;15.65;;;6.47;;
80249;SDS011;69561;37.974;23.708;2023-07-16T03:43:28;13.35;;;6.00;;
80249;SDS011;69561;37.974;23.708;2023-07-16T03:45:53;12.15;;;5.72;;
80249;SDS011;69561;37.974;23.708;2023-07-16T03:48:19;16.58;;;5.93;;
80249;SDS011;69561;37.974;23.708;2023-07-16T03:50:46;14.40;;;6.18;;
80249;SDS011;69561;37.974;23.708;2023-07-16T03:53:12;14.20;;;5.70;;
80249;SDS011;69561;37.974;23.708;2023-07-16T03:55:38;11.98;;;5.45;;
80249;SDS011;69561;37.974;23.708;2023-07-16T03:58:06;14.27;;;5.93;;
80249;SDS011;69561;37.974;23.708;2023-07-16T04:00:35;13.05;;;5.60;;
80249;SDS011;69561;37.974;23.708;2023-07-16T04:03:02;16.77;;;5.80;;
80249;SDS011;69561;37.974;23.708;2023-07-16T04:05:28;13.02;;;5.55;;
80249;SDS011;69561;37.974;23.708;2023-07-16T04:07:55;9.10;;;5.53;;
80249;SDS011;69561;37.974;23.708;2023-07-16T04:10:22;10.93;;;6.07;;
80249;SDS011;69561;37.974;23.708;2023-07-16T04:12:49;14.80;;;5.72;;
80249;SDS011;69561;37.974;23.708;2023-07-16T04:15:14;16.10;;;5.28;;
80249;SDS011;69561;37.974;23.708;2023-07-16T04:17:41;13.20;;;5.47;;
80249;SDS011;69561;37.974;23.708;2023-07-16T04:20:09;16.50;;;5.70;;
80249;SDS011;69561;37.974;23.708;2023-07-16T04:22:36;8.15;;;5.28;;
80249;SDS011;69561;37.974;23.708;2023-07-16T04:25:03;10.68;;;5.60;;
80249;SDS011;69561;37.974;23.708;2023-07-16T04:27:29;9.60;;;5.07;;
80249;SDS011;69561;37.974;23.708;2023-07-16T04:29:55;11.00;;;5.55;;
80249;SDS011;69561;37.974;23.708;2023-07-16T04:32:21;10.00;;;5.18;;
80249;SDS011;69561;37.974;23.708;2023-07-16T04:34:47;10.82;;;5.18;;
80249;SDS011;69561;37.974;23.708;2023-07-16T04:37:13;10.85;;;5.32;;
80249;SDS011;69561;37.974;23.708;2023-07-16T04:39:40;12.40;;;5.45;;
80249;SDS011;69561;37.974;23.708;2023-07-16T04:42:05;11.50;;;5.47;;
80249;SDS011;69561;37.974;23.708;2023-07-16T04:44:32;14.27;;;5.15;;
80249;SDS011;69561;37.974;23.708;2023-07-16T04:46:58;9.10;;;5.03;;
80249;SDS011;69561;37.974;23.708;2023-07-16T04:49:23;11.00;;;5.45;;
80249;SDS011;69561;37.974;23.708;2023-07-16T04:51:51;13.77;;;5.47;;
80249;SDS011;69561;37.974;23.708;2023-07-16T04:54:16;13.93;;;4.65;;
80249;SDS011;69561;37.974;23.708;2023-07-16T04:56:42;9.13;;;4.90;;
80249;SDS011;69561;37.974;23.708;2023-07-16T04:59:08;9.68;;;4.85;;
80249;SDS011;69561;37.974;23.708;2023-07-16T05:01:34;12.75;;;4.93;;
80249;SDS011;69561;37.974;23.708;2023-07-16T05:03:59;11.75;;;4.72;;
80249;SDS011;69561;37.974;23.708;2023-07-16T05:06:25;10.60;;;4.65;;
80249;SDS011;69561;37.974;23.708;2023-07-16T05:08:51;8.10;;;4.47;;
80249;SDS011;69561;37.974;23.708;2023-07-16T05:11:16;11.73;;;4.70;;
80249;SDS011;69561;37.974;23.708;2023-07-16T05:13:42;7.80;;;4.47;;
80249;SDS011;69561;37.974;23.708;2023-07-16T05:16:08;15.88;;;4.68;;
80249;SDS011;69561;37.974;23.708;2023-07-16T05:18:33;14.50;;;4.47;;
80249;SDS011;69561;37.974;23.708;2023-07-16T05:20:59;10.32;;;4.47;;
80249;SDS011;69561;37.974;23.708;2023-07-16T05:23:25;9.70;;;4.25;;
80249;SDS011;69561;37.974;23.708;2023-07-16T05:25:51;7.88;;;4.22;;
80249;SDS011;69561;37.974;23.708;2023-07-16T05:28:17;13.48;;;4.15;;
80249;SDS011;69561;37.974;23.708;2023-07-16T05:30:44;8.15;;;4.10;;
80249;SDS011;69561;37.974;23.708;2023-07-16T05:33:10;9.45;;;3.70;;
80249;SDS011;69561;37.974;23.708;2023-07-16T05:35:36;8.20;;;3.70;;
80249;SDS011;69561;37.974;23.708;2023-07-16T05:38:02;10.15;;;4.63;;
80249;SDS011;69561;37.974;23.708;2023-07-16T05:40:27;9.55;;;3.92;;
80249;SDS011;69561;37.974;23.708;2023-07-16T05:42:54;6.68;;;3.75;;
80249;SDS011;69561;37.974;23.708;2023-07-16T05:45:20;9.55;;;3.88;;
80249;SDS011;69561;37.974;23.708;2023-07-16T05:47:45;14.52;;;3.97;;
80249;SDS011;69561;37.974;23.708;2023-07-16T05:50:11;12.68;;;3.78;;
80249;SDS011;69561;37.974;23.708;2023-07-16T05:52:37;5.93;;;3.40;;
80249;SDS011;69561;37.974;23.708;2023-07-16T05:55:03;9.80;;;3.60;;
80249;SDS011;69561;37.974;23.708;2023-07-16T05:57:29;8.68;;;3.45;;
80249;SDS011;69561;37.974;23.708;2023-07-16T05:59:55;7.32;;;3.13;;
80249;SDS011;69561;37.974;23.708;2023-07-16T06:02:20;9.30;;;3.40;;
80249;SDS011;69561;37.974;23.708;2023-07-16T06:04:46;9.77;;;3.30;;
80249;SDS011;69561;37.974;23.708;2023-07-16T06:07:13;5.70;;;3.10;;
80249;SDS011;69561;37.974;23.708;2023-07-16T06:09:39;9.13;;;3.30;;
80249;SDS011;69561;37.974;23.708;2023-07-16T06:12:06;7.82;;;3.00;;
80249;SDS011;69561;37.974;23.708;2023-07-16T06:14:32;6.30;;;3.05;;
80249;SDS011;69561;37.974;23.708;2023-07-16T06:16:57;6.60;;;3.40;;
80249;SDS011;69561;37.974;23.708;2023-07-16T06:19:23;7.55;;;3.22;;
80249;SDS011;69561;37.974;23.708;2023-07-16T06:21:49;11.52;;;3.40;;
80249;SDS011;69561;37.974;23.708;2023-07-16T06:24:14;6.28;;;3.42;;
80249;SDS011;69561;37.974;23.708;2023-07-16T06:26:40;6.18;;;3.08;;
80249;SDS011;69561;37.974;23.708;2023-07-16T06:29:06;6.63;;;3.08;;
80249;SDS011;69561;37.974;23.708;2023-07-16T06:31:32;8.90;;;3.67;;
80249;SDS011;69561;37.974;23.708;2023-07-16T06:33:58;4.70;;;2.90;;
80249;SDS011;69561;37.974;23.708;2023-07-16T06:36:24;7.00;;;3.35;;
80249;SDS011;69561;37.974;23.708;2023-07-16T06:38:50;13.57;;;3.17;;
80249;SDS011;69561;37.974;23.708;2023-07-16T06:41:15;13.23;;;3.13;;
80249;SDS011;69561;37.974;23.708;2023-07-16T06:43:42;8.30;;;3.10;;
80249;SDS011;69561;37.974;23.708;2023-07-16T06:46:08;9.07;;;3.67;;
80249;SDS011;69561;37.974;23.708;2023-07-16T06:48:34;9.50;;;3.25;;
80249;SDS011;69561;37.974;23.708;2023-07-16T06:50:59;9.02;;;3.35;;
80249;SDS011;69561;37.974;23.708;2023-07-16T06:53:25;10.20;;;3.20;;
80249;SDS011;69561;37.974;23.708;2023-07-16T06:55:51;9.43;;;3.22;;
80249;SDS011;69561;37.974;23.708;2023-07-16T06:58:17;7.70;;;3.17;;
80249;SDS011;69561;37.974;23.708;2023-07-16T07:00:43;9.52;;;3.80;;
80249;SDS011;69561;37.974;23.708;2023-07-16T07:03:09;7.03;;;3.53;;
80249;SDS011;69561;37.974;23.708;2023-07-16T07:05:34;7.35;;;3.22;;
80249;SDS011;69561;37.974;23.708;2023-07-16T07:08:05;10.18;;;3.70;;
80249;SDS011;69561;37.974;23.708;2023-07-16T07:10:30;9.88;;;3.42;;
80249;SDS011;69561;37.974;23.708;2023-07-16T07:12:57;6.82;;;3.60;;
80249;SDS011;69561;37.974;23.708;2023-07-16T07:15:23;10.40;;;3.50;;
80249;SDS011;69561;37.974;23.708;2023-07-16T07:17:49;6.55;;;3.22;;
80249;SDS011;69561;37.974;23.708;2023-07-16T07:20:17;8.43;;;3.13;;
80249;SDS011;69561;37.974;23.708;2023-07-16T07:22:44;7.93;;;3.35;;
80249;SDS011;69561;37.974;23.708;2023-07-16T07:25:10;8.00;;;3.58;;
80249;SDS011;69561;37.974;23.708;2023-07-16T07:27:37;7.97;;;3.67;;
80249;SDS011;69561;37.974;23.708;2023-07-16T07:30:03;7.43;;;3.20;;
80249;SDS011;69561;37.974;23.708;2023-07-16T07:32:29;9.57;;;3.58;;
80249;SDS011;69561;37.974;23.708;2023-07-16T07:34:56;6.45;;;3.20;;
80249;SDS011;69561;37.974;23.708;2023-07-16T07:37:23;9.77;;;3.65;;
80249;SDS011;69561;37.974;23.708;2023-07-16T07:39:52;7.28;;;3.67;;
80249;SDS011;69561;37.974;23.708;2023-07-16T07:42:19;8.75;;;3.53;;
80249;SDS011;69561;37.974;23.708;2023-07-16T07:44:45;7.57;;;3.38;;
80249;SDS011;69561;37.974;23.708;2023-07-16T07:47:10;10.95;;;3.53;;
80249;SDS011;69561;37.974;23.708;2023-07-16T07:49:37;7.32;;;3.20;;
80249;SDS011;69561;37.974;23.708;2023-07-16T07:52:03;8.75;;;2.88;;
80249;SDS011;69561;37.974;23.708;2023-07-16T07:54:31;9.32;;;3.13;;
80249;SDS011;69561;37.974;23.708;2023-07-16T07:57:00;5.22;;;3.20;;
80249;SDS011;69561;37.974;23.708;2023-07-16T07:59:28;6.82;;;3.30;;
80249;SDS011;69561;37.974;23.708;2023-07-16T08:01:55;10.27;;;3.20;;
80249;SDS011;69561;37.974;23.708;2023-07-16T08:04:20;6.90;;;3.28;;
80249;SDS011;69561;37.974;23.708;2023-07-16T08:06:50;8.85;;;3.28;;
80249;SDS011;69561;37.974;23.708;2023-07-16T08:09:16;13.35;;;3.60;;
80249;SDS011;69561;37.974;23.708;2023-07-16T08:11:42;6.03;;;3.08;;
80249;SDS011;69561;37.974;23.708;2023-07-16T08:14:07;6.68;;;3.08;;
80249;SDS011;69561;37.974;23.708;2023-07-16T08:16:33;7.10;;;3.40;;
80249;SDS011;69561;37.974;23.708;2023-07-16T08:18:59;11.27;;;3.22;;
80249;SDS011;69561;37.974;23.708;2023-07-16T08:21:25;4.80;;;3.10;;
80249;SDS011;69561;37.974;23.708;2023-07-16T08:23:51;9.88;;;3.30;;
80249;SDS011;69561;37.974;23.708;2023-07-16T08:26:18;9.60;;;3.70;;
80249;SDS011;69561;37.974;23.708;2023-07-16T08:28:44;5.68;;;3.22;;
80249;SDS011;69561;37.974;23.708;2023-07-16T08:31:11;5.47;;;2.90;;
80249;SDS011;69561;37.974;23.708;2023-07-16T08:33:40;9.23;;;3.13;;
80249;SDS011;69561;37.974;23.708;2023-07-16T08:36:06;6.50;;;3.13;;
80249;SDS011;69561;37.974;23.708;2023-07-16T08:38:32;6.93;;;3.17;;
80249;SDS011;69561;37.974;23.708;2023-07-16T08:40:59;5.50;;;3.40;;
80249;SDS011;69561;37.974;23.708;2023-07-16T08:43:25;5.53;;;3.42;;
80249;SDS011;69561;37.974;23.708;2023-07-16T08:45:55;7.57;;;3.60;;
80249;SDS011;69561;37.974;23.708;2023-07-16T08:48:21;7.53;;;3.47;;
80249;SDS011;69561;37.974;23.708;2023-07-16T08:50:48;9.05;;;3.40;;
80249;SDS011;69561;37.974;23.708;2023-07-16T08:53:17;9.70;;;3.53;;
80249;SDS011;69561;37.974;23.708;2023-07-16T08:55:44;9.82;;;3.58;;
80249;SDS011;69561;37.974;23.708;2023-07-16T08:58:12;11.88;;;3.55;;
80249;SDS011;69561;37.974;23.708;2023-07-16T09:00:40;10.05;;;3.47;;
80249;SDS011;69561;37.974;23.708;2023-07-16T09:03:13;10.93;;;3.78;;
80249;SDS011;69561;37.974;23.708;2023-07-16T09:05:46;11.05;;;3.30;;
80249;SDS011;69561;37.974;23.708;2023-07-16T09:08:14;11.38;;;3.15;;
80249;SDS011;69561;37.974;23.708;2023-07-16T09:10:43;10.70;;;3.72;;
80249;SDS011;69561;37.974;23.708;2023-07-16T09:13:10;8.00;;;3.47;;
80249;SDS011;69561;37.974;23.708;2023-07-16T09:15:36;12.75;;;3.78;;
80249;SDS011;69561;37.974;23.708;2023-07-16T09:18:03;7.55;;;3.38;;
80249;SDS011;69561;37.974;23.708;2023-07-16T09:20:29;13.05;;;3.63;;
80249;SDS011;69561;37.974;23.708;2023-07-16T09:22:58;9.90;;;3.75;;
80249;SDS011;69561;37.974;23.708;2023-07-16T09:25:27;9.73;;;3.63;;
80249;SDS011;69561;37.974;23.708;2023-07-16T09:28:03;9.05;;;3.45;;
80249;SDS011;69561;37.974;23.708;2023-07-16T09:30:32;6.68;;;3.38;;
80249;SDS011;69561;37.974;23.708;2023-07-16T09:33:03;9.38;;;3.55;;
80249;SDS011;69561;37.974;23.708;2023-07-16T09:35:36;8.32;;;3.05;;
80249;SDS011;69561;37.974;23.708;2023-07-16T09:38:03;6.28;;;3.25;;
80249;SDS011;69561;37.974;23.708;2023-07-16T09:40:29;6.60;;;3.33;;
80249;SDS011;69561;37.974;23.708;2023-07-16T09:42:55;8.48;;;3.75;;
80249;SDS011;69561;37.974;23.708;2023-07-16T09:45:22;13.05;;;3.50;;
80249;SDS011;69561;37.974;23.708;2023-07-16T09:47:47;11.38;;;3.80;;
80249;SDS011;69561;37.974;23.708;2023-07-16T09:50:13;7.78;;;3.33;;
80249;SDS011;69561;37.974;23.708;2023-07-16T09:52:39;9.20;;;3.50;;
80249;SDS011;69561;37.974;23.708;2023-07-16T09:55:08;9.43;;;3.20;;
80249;SDS011;69561;37.974;23.708;2023-07-16T09:57:38;10.60;;;3.13;;
80249;SDS011;69561;37.974;23.708;2023-07-16T10:00:07;11.80;;;3.60;;
80249;SDS011;69561;37.974;23.708;2023-07-16T10:02:38;9.15;;;3.60;;
80249;SDS011;69561;37.974;23.708;2023-07-16T10:05:14;10.23;;;3.58;;
80249;SDS011;69561;37.974;23.708;2023-07-16T10:07:41;8.02;;;3.30;;
80249;SDS011;69561;37.974;23.708;2023-07-16T10:10:08;7.63;;;3.13;;
80249;SDS011;69561;37.974;23.708;2023-07-16T10:12:37;10.70;;;3.15;;
80249;SDS011;69561;37.974;23.708;2023-07-16T10:15:04;7.65;;;3.00;;
80249;SDS011;69561;37.974;23.708;2023-07-16T10:17:32;9.90;;;3.47;;
80249;SDS011;69561;37.974;23.708;2023-07-16T10:20:02;11.82;;;3.30;;
80249;SDS011;69561;37.974;23.708;2023-07-16T10:22:54;12.65;;;3.42;;
80249;SDS011;69561;37.974;23.708;2023-07-16T10:25:24;7.78;;;3.40;;
80249;SDS011;69561;37.974;23.708;2023-07-16T10:27:52;11.93;;;3.67;;
80249;SDS011;69561;37.974;23.708;2023-07-16T10:30:20;10.82;;;3.25;;
80249;SDS011;69561;37.974;23.708;2023-07-16T10:32:45;8.93;;;3.10;;
80249;SDS011;69561;37.974;23.708;2023-07-16T10:35:12;10.50;;;3.30;;
80249;SDS011;69561;37.974;23.708;2023-07-16T10:37:38;7.68;;;3.20;;
80249;SDS011;69561;37.974;23.708;2023-07-16T10:40:09;8.38;;;3.60;;
80249;SDS011;69561;37.974;23.708;2023-07-16T10:42:36;11.75;;;3.58;;
80249;SDS011;69561;37.974;23.708;2023-07-16T10:45:05;4.38;;;3.10;;
80249;SDS011;69561;37.974;23.708;2023-07-16T10:47:34;6.50;;;3.30;;
80249;SDS011;69561;37.974;23.708;2023-07-16T10:50:04;5.72;;;3.22;;
80249;SDS011;69561;37.974;23.708;2023-07-16T10:52:33;10.00;;;3.00;;
80249;SDS011;69561;37.974;23.708;2023-07-16T10:54:59;11.57;;;3.13;;
80249;SDS011;69561;37.974;23.708;2023-07-16T10:57:24;5.50;;;3.00;;
80249;SDS011;69561;37.974;23.708;2023-07-16T10:59:51;5.68;;;3.13;;
80249;SDS011;69561;37.974;23.708;2023-07-16T11:02:18;10.77;;;3.60;;
80249;SDS011;69561;37.974;23.708;2023-07-16T11:04:45;7.25;;;3.10;;
80249;SDS011;69561;37.974;23.708;2023-07-16T11:07:12;5.72;;;3.35;;
80249;SDS011;69561;37.974;23.708;2023-07-16T11:09:49;10.07;;;3.20;;
80249;SDS011;69561;37.974;23.708;2023-07-16T11:12:16;9.73;;;2.97;;
80249;SDS011;69561;37.974;23.708;2023-07-16T11:14:48;10.23;;;3.85;;
80249;SDS011;69561;37.974;23.708;2023-07-16T11:17:17;8.45;;;2.85;;
80249;SDS011;69561;37.974;23.708;2023-07-16T11:19:45;12.43;;;3.53;;
80249;SDS011;69561;37.974;23.708;2023-07-16T11:22:16;5.80;;;3.17;;
80249;SDS011;69561;37.974;23.708;2023-07-16T11:24:50;7.97;;;3.47;;
80249;SDS011;69561;37.974;23.708;2023-07-16T11:29:54;7.88;;;3.20;;
80249;SDS011;69561;37.974;23.708;2023-07-16T11:35:00;15.40;;;3.10;;
80249;SDS011;69561;37.974;23.708;2023-07-16T11:37:28;4.82;;;3.25;;
80249;SDS011;69561;37.974;23.708;2023-07-16T11:39:56;6.60;;;3.10;;
80249;SDS011;69561;37.974;23.708;2023-07-16T11:42:32;6.35;;;3.20;;
80249;SDS011;69561;37.974;23.708;2023-07-16T11:45:01;8.80;;;3.30;;
80249;SDS011;69561;37.974;23.708;2023-07-16T11:47:28;8.52;;;3.10;;
80249;SDS011;69561;37.974;23.708;2023-07-16T11:49:54;15.55;;;3.42;;
80249;SDS011;69561;37.974;23.708;2023-07-16T11:52:20;7.55;;;3.10;;
80249;SDS011;69561;37.974;23.708;2023-07-16T11:54:48;6.53;;;3.13;;
80249;SDS011;69561;37.974;23.708;2023-07-16T11:57:15;5.57;;;2.92;;
80249;SDS011;69561;37.974;23.708;2023-07-16T11:59:41;4.53;;;3.03;;
80249;SDS011;69561;37.974;23.708;2023-07-16T12:02:06;11.88;;;3.28;;
80249;SDS011;69561;37.974;23.708;2023-07-16T12:04:32;6.95;;;2.80;;
80249;SDS011;69561;37.974;23.708;2023-07-16T12:07:01;5.70;;;2.90;;
80249;SDS011;69561;37.974;23.708;2023-07-16T12:09:28;8.10;;;3.15;;
80249;SDS011;69561;37.974;23.708;2023-07-16T12:11:54;7.28;;;2.90;;
80249;SDS011;69561;37.974;23.708;2023-07-16T12:14:21;7.93;;;2.90;;
80249;SDS011;69561;37.974;23.708;2023-07-16T12:16:47;10.98;;;3.20;;
80249;SDS011;69561;37.974;23.708;2023-07-16T12:19:12;6.15;;;3.22;;
80249;SDS011;69561;37.974;23.708;2023-07-16T12:21:38;6.45;;;3.13;;
80249;SDS011;69561;37.974;23.708;2023-07-16T12:24:05;4.35;;;3.03;;
80249;SDS011;69561;37.974;23.708;2023-07-16T12:26:31;7.47;;;3.28;;
80249;SDS011;69561;37.974;23.708;2023-07-16T12:28:56;10.45;;;3.30;;
80249;SDS011;69561;37.974;23.708;2023-07-16T12:31:22;8.20;;;3.30;;
80249;SDS011;69561;37.974;23.708;2023-07-16T12:33:48;8.75;;;3.00;;
80249;SDS011;69561;37.974;23.708;2023-07-16T12:36:14;4.85;;;2.92;;
80249;SDS011;69561;37.974;23.708;2023-07-16T12:38:41;5.97;;;2.97;;
80249;SDS011;69561;37.974;23.708;2023-07-16T12:41:07;9.38;;;2.97;;
80249;SDS011;69561;37.974;23.708;2023-07-16T12:43:34;8.68;;;3.22;;
80249;SDS011;69561;37.974;23.708;2023-07-16T12:46:03;5.22;;;3.38;;
80249;SDS011;69561;37.974;23.708;2023-07-16T12:48:31;6.28;;;3.35;;
80249;SDS011;69561;37.974;23.708;2023-07-16T12:50:57;6.82;;;2.80;;
80249;SDS011;69561;37.974;23.708;2023-07-16T12:53:24;6.00;;;3.28;;
80249;SDS011;69561;37.974;23.708;2023-07-16T12:55:50;9.15;;;3.22;;
80249;SDS011;69561;37.974;23.708;2023-07-16T12:58:15;7.90;;;3.65;;
80249;SDS011;69561;37.974;23.708;2023-07-16T13:00:41;6.50;;;3.22;;
80249;SDS011;69561;37.974;23.708;2023-07-16T13:03:08;13.57;;;3.47;;
80249;SDS011;69561;37.974;23.708;2023-07-16T13:05:39;6.18;;;3.30;;
80249;SDS011;69561;37.974;23.708;2023-07-16T13:08:05;7.30;;;3.25;;
80249;SDS011;69561;37.974;23.708;2023-07-16T13:10:31;9.00;;;2.88;;
80249;SDS011;69561;37.974;23.708;2023-07-16T13:12:57;6.50;;;3.00;;
80249;SDS011;69561;37.974;23.708;2023-07-16T13:15:23;4.43;;;2.97;;
80249;SDS011;69561;37.974;23.708;2023-07-16T13:17:49;9.68;;;3.20;;
80249;SDS011;69561;37.974;23.708;2023-07-16T13:20:15;9.05;;;3.35;;
80249;SDS011;69561;37.974;23.708;2023-07-16T13:22:42;9.60;;;3.08;;
80249;SDS011;69561;37.974;23.708;2023-07-16T13:25:08;7.65;;;3.40;;
80249;SDS011;69561;37.974;23.708;2023-07-16T13:27:33;5.43;;;3.30;;
80249;SDS011;69561;37.974;23.708;2023-07-16T13:30:01;5.05;;;2.95;;
80249;SDS011;69561;37.974;23.708;2023-07-16T13:32:26;6.78;;;3.10;;
80249;SDS011;69561;37.974;23.708;2023-07-16T13:34:53;7.93;;;3.50;;
80249;SDS011;69561;37.974;23.708;2023-07-16T13:37:19;11.63;;;2.97;;
80249;SDS011;69561;37.974;23.708;2023-07-16T13:39:45;4.47;;;3.17;;
80249;SDS011;69561;37.974;23.708;2023-07-16T13:42:10;8.07;;;3.25;;
80249;SDS011;69561;37.974;23.708;2023-07-16T13:44:36;5.25;;;2.95;;
80249;SDS011;69561;37.974;23.708;2023-07-16T13:47:03;9.57;;;3.08;;
80249;SDS011;69561;37.974;23.708;2023-07-16T13:49:29;5.07;;;2.90;;
80249;SDS011;69561;37.974;23.708;2023-07-16T13:51:55;8.55;;;3.30;;
80249;SDS011;69561;37.974;23.708;2023-07-16T13:54:21;4.78;;;2.70;;
80249;SDS011;69561;37.974;23.708;2023-07-16T13:56:48;8.25;;;3.00;;
80249;SDS011;69561;37.974;23.708;2023-07-16T13:59:14;8.75;;;3.40;;
80249;SDS011;69561;37.974;23.708;2023-07-16T14:01:40;6.00;;;3.22;;
80249;SDS011;69561;37.974;23.708;2023-07-16T14:04:07;7.78;;;3.17;;
80249;SDS011;69561;37.974;23.708;2023-07-16T14:06:33;7.57;;;3.15;;
80249;SDS011;69561;37.974;23.708;2023-07-16T14:08:58;5.20;;;3.25;;
80249;SDS011;69561;37.974;23.708;2023-07-16T14:11:25;6.25;;;2.95;;
80249;SDS011;69561;37.974;23.708;2023-07-16T14:13:52;10.07;;;3.25;;
80249;SDS011;69561;37.974;23.708;2023-07-16T14:16:18;8.07;;;3.20;;
80249;SDS011;69561;37.974;23.708;2023-07-16T14:18:44;6.03;;;3.20;;
80249;SDS011;69561;37.974;23.708;2023-07-16T14:21:10;9.02;;;3.45;;
80249;SDS011;69561;37.974;23.708;2023-07-16T14:23:36;8.75;;;2.92;;
80249;SDS011;69561;37.974;23.708;2023-07-16T14:26:03;5.50;;;3.20;;
80249;SDS011;69561;37.974;23.708;2023-07-16T14:28:30;4.22;;;3.10;;
80249;SDS011;69561;37.974;23.708;2023-07-16T14:30:56;4.97;;;2.83;;
80249;SDS011;69561;37.974;23.708;2023-07-16T14:33:21;10.20;;;3.20;;
80249;SDS011;69561;37.974;23.708;2023-07-16T14:35:47;7.78;;;3.00;;
80249;SDS011;69561;37.974;23.708;2023-07-16T14:38:13;6.00;;;3.17;;
80249;SDS011;69561;37.974;23.708;2023-07-16T14:40:38;12.35;;;3.15;;